sensor_id;sensor_type;location;lat;lon;timestamp;P1;durP1;ratioP1;P2;durP2;ratioP2
71083;SDS011;58741;52.672;13.548;2022-09-12T00:00:27;1.20;;;0.85;;
71083;SDS011;58741;52.672;13.548;2022-09-12T00:02:54;0.80;;;0.60;;
71083;SDS011;58741;52.672;13.548;2022-09-12T00:05:20;0.60;;;0.60;;
71083;SDS011;58741;52.672;13.548;2022-09-12T00:07:46;0.40;;;0.40;;
71083;SDS011;58741;52.672;13.548;2022-09-12T00:10:12;0.38;;;0.38;;
71083;SDS011;58741;52.672;13.548;2022-09-12T00:12:38;0.45;;;0.45;;
71083;SDS011;58741;52.672;13.548;2022-09-12T00:15:04;0.43;;;0.43;;
71083;SDS011;58741;52.672;13.548;2022-09-12T00:17:32;0.30;;;0.30;;
71083;SDS011;58741;52.672;13.548;2022-09-12T00:19:59;1.30;;;0.90;;
71083;SDS011;58741;52.672;13.548;2022-09-12T00:22:24;0.90;;;0.60;;
71083;SDS011;58741;52.672;13.548;2022-09-12T00:24:50;1.05;;;0.60;;
71083;SDS011;58741;52.672;13.548;2022-09-12T00:27:16;1.00;;;0.73;;
71083;SDS011;58741;52.672;13.548;2022-09-12T00:29:41;1.58;;;0.70;;
71083;SDS011;58741;52.672;13.548;2022-09-12T00:32:07;0.60;;;0.60;;
71083;SDS011;58741;52.672;13.548;2022-09-12T00:34:32;0.70;;;0.50;;
71083;SDS011;58741;52.672;13.548;2022-09-12T00:37:00;0.90;;;0.80;;
71083;SDS011;58741;52.672;13.548;2022-09-12T00:39:25;0.60;;;0.50;;
71083;SDS011;58741;52.672;13.548;2022-09-12T00:41:51;1.45;;;0.63;;
71083;SDS011;58741;52.672;13.548;2022-09-12T00:46:49;0.55;;;0.45;;
71083;SDS011;58741;52.672;13.548;2022-09-12T00:49:27;1.58;;;0.50;;
71083;SDS011;58741;52.672;13.548;2022-09-12T00:52:04;0.55;;;0.50;;
71083;SDS011;58741;52.672;13.548;2022-09-12T00:54:35;1.33;;;0.75;;
71083;SDS011;58741;52.672;13.548;2022-09-12T00:57:17;0.47;;;0.47;;
71083;SDS011;58741;52.672;13.548;2022-09-12T00:59:48;0.40;;;0.40;;
71083;SDS011;58741;52.672;13.548;2022-09-12T01:02:18;1.15;;;0.85;;
71083;SDS011;58741;52.672;13.548;2022-09-12T01:04:45;0.73;;;0.60;;
71083;SDS011;58741;52.672;13.548;2022-09-12T01:07:11;0.65;;;0.50;;
71083;SDS011;58741;52.672;13.548;2022-09-12T01:09:39;1.10;;;0.68;;
71083;SDS011;58741;52.672;13.548;2022-09-12T01:12:06;0.50;;;0.50;;
71083;SDS011;58741;52.672;13.548;2022-09-12T01:14:33;0.50;;;0.50;;
71083;SDS011;58741;52.672;13.548;2022-09-12T01:16:58;0.50;;;0.50;;
71083;SDS011;58741;52.672;13.548;2022-09-12T01:22:50;0.40;;;0.40;;
71083;SDS011;58741;52.672;13.548;2022-09-12T01:28:18;0.75;;;0.60;;
71083;SDS011;58741;52.672;13.548;2022-09-12T01:33:36;0.43;;;0.43;;
71083;SDS011;58741;52.672;13.548;2022-09-12T01:41:19;0.40;;;0.40;;
71083;SDS011;58741;52.672;13.548;2022-09-12T01:46:34;0.50;;;0.50;;
71083;SDS011;58741;52.672;13.548;2022-09-12T01:51:38;0.70;;;0.68;;
71083;SDS011;58741;52.672;13.548;2022-09-12T01:54:25;0.90;;;0.60;;
71083;SDS011;58741;52.672;13.548;2022-09-12T01:57:01;0.52;;;0.52;;
71083;SDS011;58741;52.672;13.548;2022-09-12T01:59:39;0.70;;;0.70;;
71083;SDS011;58741;52.672;13.548;2022-09-12T02:02:14;0.55;;;0.55;;
71083;SDS011;58741;52.672;13.548;2022-09-12T02:04:57;1.50;;;0.50;;
71083;SDS011;58741;52.672;13.548;2022-09-12T02:07:35;0.43;;;0.43;;
71083;SDS011;58741;52.672;13.548;2022-09-12T02:12:39;0.80;;;0.50;;
71083;SDS011;58741;52.672;13.548;2022-09-12T02:15:11;0.60;;;0.60;;
71083;SDS011;58741;52.672;13.548;2022-09-12T02:17:41;1.05;;;0.60;;
71083;SDS011;58741;52.672;13.548;2022-09-12T02:20:13;0.65;;;0.63;;
71083;SDS011;58741;52.672;13.548;2022-09-12T02:22:42;1.20;;;0.60;;
71083;SDS011;58741;52.672;13.548;2022-09-12T02:25:10;1.27;;;0.93;;
71083;SDS011;58741;52.672;13.548;2022-09-12T02:27:47;0.60;;;0.60;;
71083;SDS011;58741;52.672;13.548;2022-09-12T02:30:16;0.40;;;0.40;;
71083;SDS011;58741;52.672;13.548;2022-09-12T02:38:40;0.95;;;0.73;;
71083;SDS011;58741;52.672;13.548;2022-09-12T02:41:09;0.60;;;0.60;;
71083;SDS011;58741;52.672;13.548;2022-09-12T02:43:36;0.50;;;0.50;;
71083;SDS011;58741;52.672;13.548;2022-09-12T02:46:04;0.57;;;0.57;;
71083;SDS011;58741;52.672;13.548;2022-09-12T02:48:33;1.98;;;0.90;;
71083;SDS011;58741;52.672;13.548;2022-09-12T02:51:03;0.85;;;0.63;;
71083;SDS011;58741;52.672;13.548;2022-09-12T02:53:28;0.68;;;0.68;;
71083;SDS011;58741;52.672;13.548;2022-09-12T02:55:54;0.75;;;0.40;;
71083;SDS011;58741;52.672;13.548;2022-09-12T02:58:21;2.05;;;0.57;;
71083;SDS011;58741;52.672;13.548;2022-09-12T03:03:46;1.20;;;0.75;;
71083;SDS011;58741;52.672;13.548;2022-09-12T03:14:36;0.85;;;0.77;;
71083;SDS011;58741;52.672;13.548;2022-09-12T03:17:20;1.15;;;0.65;;
71083;SDS011;58741;52.672;13.548;2022-09-12T03:20:08;1.13;;;0.82;;
71083;SDS011;58741;52.672;13.548;2022-09-12T03:27:53;1.02;;;0.65;;
71083;SDS011;58741;52.672;13.548;2022-09-12T03:30:22;0.30;;;0.30;;
71083;SDS011;58741;52.672;13.548;2022-09-12T03:32:49;0.68;;;0.60;;
71083;SDS011;58741;52.672;13.548;2022-09-12T03:35:17;0.80;;;0.70;;
71083;SDS011;58741;52.672;13.548;2022-09-12T03:37:45;0.88;;;0.60;;
71083;SDS011;58741;52.672;13.548;2022-09-12T03:40:12;1.15;;;0.70;;
71083;SDS011;58741;52.672;13.548;2022-09-12T03:42:39;1.65;;;0.80;;
71083;SDS011;58741;52.672;13.548;2022-09-12T03:45:05;2.03;;;1.15;;
71083;SDS011;58741;52.672;13.548;2022-09-12T03:47:31;1.88;;;0.88;;
71083;SDS011;58741;52.672;13.548;2022-09-12T03:49:57;1.00;;;0.90;;
71083;SDS011;58741;52.672;13.548;2022-09-12T03:52:23;2.45;;;1.13;;
71083;SDS011;58741;52.672;13.548;2022-09-12T03:54:49;1.98;;;1.05;;
71083;SDS011;58741;52.672;13.548;2022-09-12T03:57:14;1.67;;;1.10;;
71083;SDS011;58741;52.672;13.548;2022-09-12T03:59:40;0.57;;;0.43;;
71083;SDS011;58741;52.672;13.548;2022-09-12T04:02:05;1.08;;;0.68;;
71083;SDS011;58741;52.672;13.548;2022-09-12T04:04:31;1.63;;;1.00;;
71083;SDS011;58741;52.672;13.548;2022-09-12T04:06:57;2.22;;;0.95;;
71083;SDS011;58741;52.672;13.548;2022-09-12T04:09:22;1.80;;;1.05;;
71083;SDS011;58741;52.672;13.548;2022-09-12T04:11:48;1.02;;;0.82;;
71083;SDS011;58741;52.672;13.548;2022-09-12T04:14:13;1.05;;;0.85;;
71083;SDS011;58741;52.672;13.548;2022-09-12T04:16:39;1.60;;;0.80;;
71083;SDS011;58741;52.672;13.548;2022-09-12T04:19:04;0.60;;;0.60;;
71083;SDS011;58741;52.672;13.548;2022-09-12T04:21:30;1.15;;;0.85;;
71083;SDS011;58741;52.672;13.548;2022-09-12T04:23:56;1.23;;;0.98;;
71083;SDS011;58741;52.672;13.548;2022-09-12T04:26:21;1.02;;;0.73;;
71083;SDS011;58741;52.672;13.548;2022-09-12T04:28:47;1.27;;;0.85;;
71083;SDS011;58741;52.672;13.548;2022-09-12T04:31:14;1.08;;;0.63;;
71083;SDS011;58741;52.672;13.548;2022-09-12T04:33:43;0.93;;;0.90;;
71083;SDS011;58741;52.672;13.548;2022-09-12T04:36:10;0.70;;;0.63;;
71083;SDS011;58741;52.672;13.548;2022-09-12T04:38:41;1.17;;;0.80;;
71083;SDS011;58741;52.672;13.548;2022-09-12T04:41:18;1.08;;;0.80;;
71083;SDS011;58741;52.672;13.548;2022-09-12T04:43:45;1.27;;;1.05;;
71083;SDS011;58741;52.672;13.548;2022-09-12T04:46:15;0.90;;;0.80;;
71083;SDS011;58741;52.672;13.548;2022-09-12T04:48:43;1.17;;;0.70;;
71083;SDS011;58741;52.672;13.548;2022-09-12T04:51:11;0.70;;;0.60;;
71083;SDS011;58741;52.672;13.548;2022-09-12T04:53:51;2.05;;;1.10;;
71083;SDS011;58741;52.672;13.548;2022-09-12T04:56:18;1.30;;;0.88;;
71083;SDS011;58741;52.672;13.548;2022-09-12T04:58:44;1.00;;;0.73;;
71083;SDS011;58741;52.672;13.548;2022-09-12T05:01:13;1.30;;;1.00;;
71083;SDS011;58741;52.672;13.548;2022-09-12T05:03:46;2.47;;;0.57;;
71083;SDS011;58741;52.672;13.548;2022-09-12T05:06:13;1.10;;;0.60;;
71083;SDS011;58741;52.672;13.548;2022-09-12T05:08:49;1.02;;;0.93;;
71083;SDS011;58741;52.672;13.548;2022-09-12T05:11:20;2.25;;;1.08;;
71083;SDS011;58741;52.672;13.548;2022-09-12T05:16:37;0.93;;;0.80;;
71083;SDS011;58741;52.672;13.548;2022-09-12T05:19:03;1.70;;;1.02;;
71083;SDS011;58741;52.672;13.548;2022-09-12T05:21:28;0.82;;;0.63;;
71083;SDS011;58741;52.672;13.548;2022-09-12T05:23:55;1.45;;;0.82;;
71083;SDS011;58741;52.672;13.548;2022-09-12T05:26:24;0.90;;;0.70;;
71083;SDS011;58741;52.672;13.548;2022-09-12T05:28:50;2.38;;;0.85;;
71083;SDS011;58741;52.672;13.548;2022-09-12T05:31:17;0.60;;;0.60;;
71083;SDS011;58741;52.672;13.548;2022-09-12T05:33:45;1.10;;;1.00;;
71083;SDS011;58741;52.672;13.548;2022-09-12T05:36:16;0.70;;;0.70;;
71083;SDS011;58741;52.672;13.548;2022-09-12T05:38:43;0.57;;;0.55;;
71083;SDS011;58741;52.672;13.548;2022-09-12T05:41:09;0.82;;;0.77;;
71083;SDS011;58741;52.672;13.548;2022-09-12T05:43:38;1.25;;;1.10;;
71083;SDS011;58741;52.672;13.548;2022-09-12T05:46:06;1.38;;;0.70;;
71083;SDS011;58741;52.672;13.548;2022-09-12T05:48:36;1.30;;;1.20;;
71083;SDS011;58741;52.672;13.548;2022-09-12T05:51:05;0.80;;;0.75;;
71083;SDS011;58741;52.672;13.548;2022-09-12T05:53:33;0.98;;;0.85;;
71083;SDS011;58741;52.672;13.548;2022-09-12T05:56:06;0.68;;;0.68;;
71083;SDS011;58741;52.672;13.548;2022-09-12T05:58:42;0.80;;;0.73;;
71083;SDS011;58741;52.672;13.548;2022-09-12T06:01:11;0.82;;;0.65;;
71083;SDS011;58741;52.672;13.548;2022-09-12T06:03:42;1.05;;;0.63;;
71083;SDS011;58741;52.672;13.548;2022-09-12T06:06:09;0.80;;;0.73;;
71083;SDS011;58741;52.672;13.548;2022-09-12T06:08:39;0.50;;;0.50;;
71083;SDS011;58741;52.672;13.548;2022-09-12T06:11:07;0.57;;;0.57;;
71083;SDS011;58741;52.672;13.548;2022-09-12T06:13:34;0.50;;;0.50;;
71083;SDS011;58741;52.672;13.548;2022-09-12T06:18:34;0.95;;;0.63;;
71083;SDS011;58741;52.672;13.548;2022-09-12T06:21:01;0.55;;;0.45;;
71083;SDS011;58741;52.672;13.548;2022-09-12T06:23:31;0.70;;;0.65;;
71083;SDS011;58741;52.672;13.548;2022-09-12T06:25:57;0.90;;;0.50;;
71083;SDS011;58741;52.672;13.548;2022-09-12T06:28:23;0.57;;;0.52;;
71083;SDS011;58741;52.672;13.548;2022-09-12T06:30:48;0.82;;;0.65;;
71083;SDS011;58741;52.672;13.548;2022-09-12T06:33:14;1.05;;;0.73;;
71083;SDS011;58741;52.672;13.548;2022-09-12T06:35:40;0.70;;;0.65;;
71083;SDS011;58741;52.672;13.548;2022-09-12T06:38:05;1.88;;;1.00;;
71083;SDS011;58741;52.672;13.548;2022-09-12T06:40:31;0.70;;;0.60;;
71083;SDS011;58741;52.672;13.548;2022-09-12T06:42:57;2.17;;;0.93;;
71083;SDS011;58741;52.672;13.548;2022-09-12T06:45:22;2.15;;;1.10;;
71083;SDS011;58741;52.672;13.548;2022-09-12T06:47:49;0.55;;;0.55;;
71083;SDS011;58741;52.672;13.548;2022-09-12T06:50:15;1.25;;;0.70;;
71083;SDS011;58741;52.672;13.548;2022-09-12T06:52:41;1.42;;;1.20;;
71083;SDS011;58741;52.672;13.548;2022-09-12T06:55:06;1.08;;;0.77;;
71083;SDS011;58741;52.672;13.548;2022-09-12T06:57:32;2.28;;;1.35;;
71083;SDS011;58741;52.672;13.548;2022-09-12T07:00:01;1.25;;;0.93;;
71083;SDS011;58741;52.672;13.548;2022-09-12T07:02:29;0.63;;;0.63;;
71083;SDS011;58741;52.672;13.548;2022-09-12T07:04:54;2.03;;;0.95;;
71083;SDS011;58741;52.672;13.548;2022-09-12T07:07:20;0.70;;;0.70;;
71083;SDS011;58741;52.672;13.548;2022-09-12T07:09:46;1.10;;;0.95;;
71083;SDS011;58741;52.672;13.548;2022-09-12T07:12:11;1.20;;;0.90;;
71083;SDS011;58741;52.672;13.548;2022-09-12T07:14:37;0.75;;;0.68;;
71083;SDS011;58741;52.672;13.548;2022-09-12T07:17:02;0.60;;;0.60;;
71083;SDS011;58741;52.672;13.548;2022-09-12T07:19:28;1.25;;;0.95;;
71083;SDS011;58741;52.672;13.548;2022-09-12T07:21:53;1.55;;;0.98;;
71083;SDS011;58741;52.672;13.548;2022-09-12T07:24:19;1.25;;;0.70;;
71083;SDS011;58741;52.672;13.548;2022-09-12T07:26:44;1.50;;;0.93;;
71083;SDS011;58741;52.672;13.548;2022-09-12T07:29:14;0.90;;;0.63;;
71083;SDS011;58741;52.672;13.548;2022-09-12T07:31:40;0.70;;;0.50;;
71083;SDS011;58741;52.672;13.548;2022-09-12T07:34:06;0.80;;;0.80;;
71083;SDS011;58741;52.672;13.548;2022-09-12T07:36:32;0.45;;;0.45;;
71083;SDS011;58741;52.672;13.548;2022-09-12T07:38:58;0.50;;;0.50;;
71083;SDS011;58741;52.672;13.548;2022-09-12T07:41:25;1.50;;;0.88;;
71083;SDS011;58741;52.672;13.548;2022-09-12T07:43:52;1.00;;;0.85;;
71083;SDS011;58741;52.672;13.548;2022-09-12T07:46:20;0.55;;;0.55;;
71083;SDS011;58741;52.672;13.548;2022-09-12T07:48:52;0.73;;;0.55;;
71083;SDS011;58741;52.672;13.548;2022-09-12T07:51:19;0.20;;;0.20;;
71083;SDS011;58741;52.672;13.548;2022-09-12T07:53:46;0.30;;;0.30;;
71083;SDS011;58741;52.672;13.548;2022-09-12T07:56:12;1.20;;;0.73;;
71083;SDS011;58741;52.672;13.548;2022-09-12T07:58:39;0.50;;;0.45;;
71083;SDS011;58741;52.672;13.548;2022-09-12T08:01:12;0.55;;;0.43;;
71083;SDS011;58741;52.672;13.548;2022-09-12T08:03:45;0.43;;;0.43;;
71083;SDS011;58741;52.672;13.548;2022-09-12T08:06:12;0.75;;;0.47;;
71083;SDS011;58741;52.672;13.548;2022-09-12T08:08:40;0.70;;;0.57;;
71083;SDS011;58741;52.672;13.548;2022-09-12T08:11:07;0.40;;;0.40;;
71083;SDS011;58741;52.672;13.548;2022-09-12T08:13:34;0.35;;;0.32;;
71083;SDS011;58741;52.672;13.548;2022-09-12T08:16:03;0.70;;;0.52;;
71083;SDS011;58741;52.672;13.548;2022-09-12T08:18:30;0.55;;;0.50;;
71083;SDS011;58741;52.672;13.548;2022-09-12T08:21:02;0.75;;;0.40;;
71083;SDS011;58741;52.672;13.548;2022-09-12T08:23:30;0.52;;;0.50;;
71083;SDS011;58741;52.672;13.548;2022-09-12T08:25:56;0.50;;;0.40;;
71083;SDS011;58741;52.672;13.548;2022-09-12T08:28:24;0.50;;;0.50;;
71083;SDS011;58741;52.672;13.548;2022-09-12T08:30:50;0.22;;;0.22;;
71083;SDS011;58741;52.672;13.548;2022-09-12T08:33:16;0.60;;;0.50;;
71083;SDS011;58741;52.672;13.548;2022-09-12T08:35:41;0.50;;;0.45;;
71083;SDS011;58741;52.672;13.548;2022-09-12T08:38:07;0.40;;;0.40;;
71083;SDS011;58741;52.672;13.548;2022-09-12T08:40:33;0.50;;;0.50;;
71083;SDS011;58741;52.672;13.548;2022-09-12T08:43:17;0.30;;;0.30;;
71083;SDS011;58741;52.672;13.548;2022-09-12T08:46:06;0.40;;;0.40;;
71083;SDS011;58741;52.672;13.548;2022-09-12T08:48:39;0.55;;;0.50;;
71083;SDS011;58741;52.672;13.548;2022-09-12T08:51:08;0.90;;;0.40;;
71083;SDS011;58741;52.672;13.548;2022-09-12T08:53:37;3.83;;;0.50;;
71083;SDS011;58741;52.672;13.548;2022-09-12T08:56:03;0.57;;;0.50;;
71083;SDS011;58741;52.672;13.548;2022-09-12T08:58:33;0.28;;;0.25;;
71083;SDS011;58741;52.672;13.548;2022-09-12T09:01:14;0.65;;;0.38;;
71083;SDS011;58741;52.672;13.548;2022-09-12T09:12:38;0.38;;;0.38;;
71083;SDS011;58741;52.672;13.548;2022-09-12T09:17:50;0.30;;;0.30;;
71083;SDS011;58741;52.672;13.548;2022-09-12T09:28:31;2.28;;;0.20;;
71083;SDS011;58741;52.672;13.548;2022-09-12T09:31:11;0.25;;;0.25;;
71083;SDS011;58741;52.672;13.548;2022-09-12T09:33:39;0.82;;;0.50;;
71083;SDS011;58741;52.672;13.548;2022-09-12T09:36:21;0.47;;;0.30;;
71083;SDS011;58741;52.672;13.548;2022-09-12T09:39:04;0.20;;;0.20;;
71083;SDS011;58741;52.672;13.548;2022-09-12T09:41:53;0.30;;;0.30;;
71083;SDS011;58741;52.672;13.548;2022-09-12T09:44:23;0.20;;;0.20;;
71083;SDS011;58741;52.672;13.548;2022-09-12T09:46:53;0.60;;;0.50;;
71083;SDS011;58741;52.672;13.548;2022-09-12T09:49:22;0.40;;;0.40;;
71083;SDS011;58741;52.672;13.548;2022-09-12T09:51:49;0.20;;;0.20;;
71083;SDS011;58741;52.672;13.548;2022-09-12T09:57:36;0.20;;;0.20;;
71083;SDS011;58741;52.672;13.548;2022-09-12T10:03:00;0.20;;;0.20;;
71083;SDS011;58741;52.672;13.548;2022-09-12T10:05:27;0.30;;;0.30;;
71083;SDS011;58741;52.672;13.548;2022-09-12T10:07:53;1.75;;;0.40;;
71083;SDS011;58741;52.672;13.548;2022-09-12T10:10:19;0.85;;;0.50;;
71083;SDS011;58741;52.672;13.548;2022-09-12T10:12:48;0.20;;;0.20;;
71083;SDS011;58741;52.672;13.548;2022-09-12T10:15:21;0.35;;;0.35;;
71083;SDS011;58741;52.672;13.548;2022-09-12T10:17:50;0.38;;;0.30;;
71083;SDS011;58741;52.672;13.548;2022-09-12T10:22:58;0.25;;;0.25;;
71083;SDS011;58741;52.672;13.548;2022-09-12T10:25:25;0.80;;;0.30;;
71083;SDS011;58741;52.672;13.548;2022-09-12T10:27:52;0.30;;;0.30;;
71083;SDS011;58741;52.672;13.548;2022-09-12T10:30:24;0.65;;;0.47;;
71083;SDS011;58741;52.672;13.548;2022-09-12T10:32:52;0.40;;;0.30;;
71083;SDS011;58741;52.672;13.548;2022-09-12T10:35:24;0.30;;;0.30;;
71083;SDS011;58741;52.672;13.548;2022-09-12T10:38:04;0.30;;;0.30;;
71083;SDS011;58741;52.672;13.548;2022-09-12T10:40:33;2.50;;;0.20;;
71083;SDS011;58741;52.672;13.548;2022-09-12T10:45:51;0.30;;;0.30;;
71083;SDS011;58741;52.672;13.548;2022-09-12T10:50:55;0.30;;;0.30;;
71083;SDS011;58741;52.672;13.548;2022-09-12T10:53:22;0.22;;;0.22;;
71083;SDS011;58741;52.672;13.548;2022-09-12T10:56:07;0.20;;;0.20;;
71083;SDS011;58741;52.672;13.548;2022-09-12T11:01:34;0.30;;;0.30;;
71083;SDS011;58741;52.672;13.548;2022-09-12T11:09:41;0.40;;;0.40;;
71083;SDS011;58741;52.672;13.548;2022-09-12T11:12:19;0.20;;;0.20;;
71083;SDS011;58741;52.672;13.548;2022-09-12T11:15:20;0.30;;;0.30;;
71083;SDS011;58741;52.672;13.548;2022-09-12T11:18:04;0.20;;;0.20;;
71083;SDS011;58741;52.672;13.548;2022-09-12T11:26:20;0.25;;;0.25;;
71083;SDS011;58741;52.672;13.548;2022-09-12T11:35:24;0.30;;;0.30;;
71083;SDS011;58741;52.672;13.548;2022-09-12T11:43:08;0.20;;;0.20;;
71083;SDS011;58741;52.672;13.548;2022-09-12T11:45:52;0.50;;;0.30;;
71083;SDS011;58741;52.672;13.548;2022-09-12T11:50:54;0.10;;;0.10;;
71083;SDS011;58741;52.672;13.548;2022-09-12T11:53:22;0.22;;;0.22;;
71083;SDS011;58741;52.672;13.548;2022-09-12T11:55:57;0.30;;;0.30;;
71083;SDS011;58741;52.672;13.548;2022-09-12T11:58:34;0.20;;;0.20;;
71083;SDS011;58741;52.672;13.548;2022-09-12T12:01:08;0.22;;;0.20;;
71083;SDS011;58741;52.672;13.548;2022-09-12T12:03:45;0.20;;;0.20;;
71083;SDS011;58741;52.672;13.548;2022-09-12T12:06:16;0.20;;;0.20;;
71083;SDS011;58741;52.672;13.548;2022-09-12T12:08:49;0.20;;;0.20;;
71083;SDS011;58741;52.672;13.548;2022-09-12T12:11:23;0.40;;;0.40;;
71083;SDS011;58741;52.672;13.548;2022-09-12T12:13:58;0.43;;;0.40;;
71083;SDS011;58741;52.672;13.548;2022-09-12T12:16:27;0.52;;;0.32;;
71083;SDS011;58741;52.672;13.548;2022-09-12T12:21:41;0.20;;;0.20;;
71083;SDS011;58741;52.672;13.548;2022-09-12T12:24:10;0.38;;;0.30;;
71083;SDS011;58741;52.672;13.548;2022-09-12T12:29:12;0.30;;;0.30;;
71083;SDS011;58741;52.672;13.548;2022-09-12T12:34:31;0.30;;;0.30;;
71083;SDS011;58741;52.672;13.548;2022-09-12T12:47:32;0.10;;;0.10;;
71083;SDS011;58741;52.672;13.548;2022-09-12T12:52:55;0.55;;;0.30;;
71083;SDS011;58741;52.672;13.548;2022-09-12T12:55:31;0.15;;;0.15;;
71083;SDS011;58741;52.672;13.548;2022-09-12T12:57:59;0.20;;;0.20;;
71083;SDS011;58741;52.672;13.548;2022-09-12T13:00:27;0.32;;;0.30;;
71083;SDS011;58741;52.672;13.548;2022-09-12T13:03:00;0.20;;;0.20;;
71083;SDS011;58741;52.672;13.548;2022-09-12T13:05:38;0.28;;;0.28;;
71083;SDS011;58741;52.672;13.548;2022-09-12T13:10:51;0.77;;;0.47;;
71083;SDS011;58741;52.672;13.548;2022-09-12T13:13:24;0.30;;;0.30;;
71083;SDS011;58741;52.672;13.548;2022-09-12T13:15:51;0.25;;;0.25;;
71083;SDS011;58741;52.672;13.548;2022-09-12T13:23:33;0.20;;;0.20;;
71083;SDS011;58741;52.672;13.548;2022-09-12T13:26:00;0.20;;;0.20;;
71083;SDS011;58741;52.672;13.548;2022-09-12T13:28:29;0.28;;;0.28;;
71083;SDS011;58741;52.672;13.548;2022-09-12T13:30:57;0.40;;;0.40;;
71083;SDS011;58741;52.672;13.548;2022-09-12T13:33:36;0.30;;;0.22;;
71083;SDS011;58741;52.672;13.548;2022-09-12T13:42:05;0.30;;;0.30;;
71083;SDS011;58741;52.672;13.548;2022-09-12T13:44:51;0.20;;;0.20;;
71083;SDS011;58741;52.672;13.548;2022-09-12T13:47:29;0.40;;;0.30;;
71083;SDS011;58741;52.672;13.548;2022-09-12T13:50:00;0.20;;;0.20;;
71083;SDS011;58741;52.672;13.548;2022-09-12T13:52:31;0.32;;;0.32;;
71083;SDS011;58741;52.672;13.548;2022-09-12T13:54:59;0.32;;;0.30;;
71083;SDS011;58741;52.672;13.548;2022-09-12T13:57:36;4.55;;;0.30;;
71083;SDS011;58741;52.672;13.548;2022-09-12T14:00:15;0.20;;;0.20;;
71083;SDS011;58741;52.672;13.548;2022-09-12T14:02:43;0.20;;;0.20;;
71083;SDS011;58741;52.672;13.548;2022-09-12T14:05:10;0.28;;;0.28;;
71083;SDS011;58741;52.672;13.548;2022-09-12T14:07:39;0.50;;;0.40;;
71083;SDS011;58741;52.672;13.548;2022-09-12T14:10:20;0.20;;;0.20;;
71083;SDS011;58741;52.672;13.548;2022-09-12T14:12:55;0.60;;;0.40;;
71083;SDS011;58741;52.672;13.548;2022-09-12T14:15:24;0.93;;;0.40;;
71083;SDS011;58741;52.672;13.548;2022-09-12T14:17:53;0.20;;;0.20;;
71083;SDS011;58741;52.672;13.548;2022-09-12T14:20:20;0.22;;;0.22;;
71083;SDS011;58741;52.672;13.548;2022-09-12T14:22:48;0.57;;;0.43;;
71083;SDS011;58741;52.672;13.548;2022-09-12T14:25:15;0.93;;;0.38;;
71083;SDS011;58741;52.672;13.548;2022-09-12T14:27:47;0.40;;;0.38;;
71083;SDS011;58741;52.672;13.548;2022-09-12T14:30:25;0.20;;;0.20;;
71083;SDS011;58741;52.672;13.548;2022-09-12T14:35:37;0.40;;;0.30;;
71083;SDS011;58741;52.672;13.548;2022-09-12T14:38:29;0.40;;;0.38;;
71083;SDS011;58741;52.672;13.548;2022-09-12T14:40:59;0.30;;;0.30;;
71083;SDS011;58741;52.672;13.548;2022-09-12T14:43:30;0.60;;;0.22;;
71083;SDS011;58741;52.672;13.548;2022-09-12T14:45:59;0.30;;;0.28;;
71083;SDS011;58741;52.672;13.548;2022-09-12T14:48:47;0.10;;;0.10;;
71083;SDS011;58741;52.672;13.548;2022-09-12T14:51:38;0.30;;;0.30;;
71083;SDS011;58741;52.672;13.548;2022-09-12T14:54:03;0.40;;;0.40;;
71083;SDS011;58741;52.672;13.548;2022-09-12T14:56:36;0.20;;;0.20;;
71083;SDS011;58741;52.672;13.548;2022-09-12T15:02:10;0.30;;;0.30;;
71083;SDS011;58741;52.672;13.548;2022-09-12T15:04:46;0.30;;;0.30;;
71083;SDS011;58741;52.672;13.548;2022-09-12T15:07:23;0.20;;;0.20;;
71083;SDS011;58741;52.672;13.548;2022-09-12T15:09:50;0.40;;;0.38;;
71083;SDS011;58741;52.672;13.548;2022-09-12T15:12:17;0.30;;;0.30;;
71083;SDS011;58741;52.672;13.548;2022-09-12T15:14:42;0.57;;;0.38;;
71083;SDS011;58741;52.672;13.548;2022-09-12T15:17:08;0.22;;;0.22;;
71083;SDS011;58741;52.672;13.548;2022-09-12T15:19:33;0.40;;;0.40;;
71083;SDS011;58741;52.672;13.548;2022-09-12T15:21:58;0.90;;;0.40;;
71083;SDS011;58741;52.672;13.548;2022-09-12T15:24:24;0.38;;;0.38;;
71083;SDS011;58741;52.672;13.548;2022-09-12T15:26:49;0.20;;;0.20;;
71083;SDS011;58741;52.672;13.548;2022-09-12T15:29:15;0.57;;;0.38;;
71083;SDS011;58741;52.672;13.548;2022-09-12T15:31:40;1.45;;;0.30;;
71083;SDS011;58741;52.672;13.548;2022-09-12T15:34:10;0.47;;;0.45;;
71083;SDS011;58741;52.672;13.548;2022-09-12T15:36:36;0.30;;;0.30;;
71083;SDS011;58741;52.672;13.548;2022-09-12T15:39:02;0.45;;;0.40;;
71083;SDS011;58741;52.672;13.548;2022-09-12T15:41:31;0.20;;;0.10;;
71083;SDS011;58741;52.672;13.548;2022-09-12T15:44:04;0.35;;;0.30;;
71083;SDS011;58741;52.672;13.548;2022-09-12T15:46:32;0.17;;;0.17;;
71083;SDS011;58741;52.672;13.548;2022-09-12T15:48:57;0.82;;;0.45;;
71083;SDS011;58741;52.672;13.548;2022-09-12T15:51:23;0.85;;;0.50;;
71083;SDS011;58741;52.672;13.548;2022-09-12T15:53:49;0.47;;;0.40;;
71083;SDS011;58741;52.672;13.548;2022-09-12T15:56:15;0.40;;;0.30;;
71083;SDS011;58741;52.672;13.548;2022-09-12T15:58:42;0.20;;;0.20;;
71083;SDS011;58741;52.672;13.548;2022-09-12T16:01:11;0.22;;;0.20;;
71083;SDS011;58741;52.672;13.548;2022-09-12T16:03:42;0.30;;;0.30;;
71083;SDS011;58741;52.672;13.548;2022-09-12T16:06:10;0.30;;;0.30;;
71083;SDS011;58741;52.672;13.548;2022-09-12T16:08:36;0.20;;;0.20;;
71083;SDS011;58741;52.672;13.548;2022-09-12T16:11:06;0.30;;;0.30;;
71083;SDS011;58741;52.672;13.548;2022-09-12T16:13:36;0.22;;;0.22;;
71083;SDS011;58741;52.672;13.548;2022-09-12T16:16:01;0.20;;;0.20;;
71083;SDS011;58741;52.672;13.548;2022-09-12T16:18:27;0.10;;;0.10;;
71083;SDS011;58741;52.672;13.548;2022-09-12T16:20:53;0.28;;;0.28;;
71083;SDS011;58741;52.672;13.548;2022-09-12T16:23:19;0.20;;;0.20;;
71083;SDS011;58741;52.672;13.548;2022-09-12T16:25:45;0.38;;;0.30;;
71083;SDS011;58741;52.672;13.548;2022-09-12T16:28:23;0.43;;;0.43;;
71083;SDS011;58741;52.672;13.548;2022-09-12T16:30:59;0.30;;;0.30;;
71083;SDS011;58741;52.672;13.548;2022-09-12T16:33:26;0.95;;;0.50;;
71083;SDS011;58741;52.672;13.548;2022-09-12T16:35:52;0.93;;;0.43;;
71083;SDS011;58741;52.672;13.548;2022-09-12T16:38:24;0.22;;;0.22;;
71083;SDS011;58741;52.672;13.548;2022-09-12T16:40:50;0.77;;;0.45;;
71083;SDS011;58741;52.672;13.548;2022-09-12T16:43:16;0.20;;;0.20;;
71083;SDS011;58741;52.672;13.548;2022-09-12T16:45:44;0.35;;;0.35;;
71083;SDS011;58741;52.672;13.548;2022-09-12T16:48:10;0.60;;;0.50;;
71083;SDS011;58741;52.672;13.548;2022-09-12T16:50:36;0.75;;;0.47;;
71083;SDS011;58741;52.672;13.548;2022-09-12T16:53:01;4.45;;;0.28;;
71083;SDS011;58741;52.672;13.548;2022-09-12T16:55:27;0.20;;;0.20;;
71083;SDS011;58741;52.672;13.548;2022-09-12T16:57:53;0.22;;;0.20;;
71083;SDS011;58741;52.672;13.548;2022-09-12T17:00:19;0.45;;;0.40;;
71083;SDS011;58741;52.672;13.548;2022-09-12T17:02:45;0.50;;;0.50;;
71083;SDS011;58741;52.672;13.548;2022-09-12T17:05:11;0.82;;;0.70;;
71083;SDS011;58741;52.672;13.548;2022-09-12T17:07:39;2.00;;;0.90;;
71083;SDS011;58741;52.672;13.548;2022-09-12T17:10:05;0.80;;;0.70;;
71083;SDS011;58741;52.672;13.548;2022-09-12T17:12:31;1.17;;;0.80;;
71083;SDS011;58741;52.672;13.548;2022-09-12T17:14:56;1.85;;;0.88;;
71083;SDS011;58741;52.672;13.548;2022-09-12T17:17:22;0.77;;;0.68;;
71083;SDS011;58741;52.672;13.548;2022-09-12T17:19:49;2.35;;;1.10;;
71083;SDS011;58741;52.672;13.548;2022-09-12T17:22:14;2.17;;;1.45;;